createdAt,value
2023-05-24T00:00:32.876Z,17.76
2023-05-24T00:03:00.499Z,17.76
2023-05-24T00:05:31.296Z,17.79
2023-05-24T00:07:59.497Z,17.83
2023-05-24T00:10:26.950Z,17.87
2023-05-24T00:12:54.652Z,17.94
2023-05-24T00:15:22.117Z,17.96
2023-05-24T00:17:49.699Z,18.00
2023-05-24T00:20:17.395Z,18.01
2023-05-24T00:22:45.076Z,17.98
2023-05-24T00:25:12.669Z,17.98
2023-05-24T00:27:40.371Z,17.97
2023-05-24T00:30:08.153Z,18.00
2023-05-24T00:32:35.800Z,17.97
2023-05-24T00:35:04.689Z,17.92
2023-05-24T00:37:32.604Z,17.96
2023-05-24T00:40:00.251Z,17.98
2023-05-24T00:42:27.927Z,17.98
2023-05-24T00:44:55.546Z,17.99
2023-05-24T00:47:23.110Z,17.98
2023-05-24T00:49:50.739Z,18.01
2023-05-24T00:52:18.295Z,18.05
2023-05-24T00:54:45.924Z,18.17
2023-05-24T00:57:16.319Z,18.28
2023-05-24T00:59:43.761Z,18.21
2023-05-24T01:02:11.438Z,18.24
2023-05-24T01:04:38.873Z,18.28
2023-05-24T01:07:13.437Z,18.28
2023-05-24T01:09:56.703Z,18.23
2023-05-24T01:12:37.094Z,18.23
2023-05-24T01:15:10.723Z,18.22
2023-05-24T01:18:01.727Z,18.17
2023-05-24T01:20:30.828Z,18.08
2023-05-24T01:23:06.556Z,18.17
2023-05-24T01:25:46.585Z,18.22
2023-05-24T01:28:14.078Z,18.16
2023-05-24T01:30:41.845Z,18.07
2023-05-24T01:33:09.598Z,18.03
2023-05-24T01:35:40.548Z,18.08
2023-05-24T01:38:08.595Z,18.07
2023-05-24T01:40:36.115Z,18.05
2023-05-24T01:43:27.554Z,18.06
2023-05-24T01:45:56.410Z,17.93
2023-05-24T01:48:48.910Z,17.90
2023-05-24T01:51:18.784Z,17.90
2023-05-24T01:53:47.720Z,17.93
2023-05-24T01:56:17.430Z,17.99
2023-05-24T01:58:46.084Z,17.98
2023-05-24T02:01:14.445Z,17.93
2023-05-24T02:03:42.032Z,17.85
2023-05-24T02:06:10.949Z,17.80
2023-05-24T02:08:40.529Z,17.79
2023-05-24T02:11:08.168Z,17.80
2023-05-24T02:13:35.605Z,17.88
2023-05-24T02:16:05.277Z,17.90
2023-05-24T02:18:35.074Z,17.89
2023-05-24T02:21:02.861Z,17.85
2023-05-24T02:23:30.447Z,17.79
2023-05-24T02:26:00.292Z,17.68
2023-05-24T02:28:28.475Z,17.60
2023-05-24T02:30:55.975Z,17.55
2023-05-24T02:33:25.754Z,17.47
2023-05-24T02:35:53.267Z,17.42
2023-05-24T02:38:20.848Z,17.35
2023-05-24T02:40:48.487Z,17.36
2023-05-24T02:43:16.154Z,17.37
2023-05-24T02:45:43.632Z,17.37
2023-05-24T02:48:12.118Z,17.41
2023-05-24T02:50:39.635Z,17.34
2023-05-24T02:53:07.327Z,17.39
2023-05-24T02:55:34.904Z,17.44
2023-05-24T02:58:03.067Z,17.51
2023-05-24T03:00:31.200Z,17.55
2023-05-24T03:03:24.736Z,17.59
2023-05-24T03:05:52.510Z,17.59
2023-05-24T03:08:20.032Z,17.61
2023-05-24T03:10:47.588Z,17.71
2023-05-24T03:13:15.246Z,17.68
2023-05-24T03:15:43.127Z,17.70
2023-05-24T03:18:10.625Z,17.75
2023-05-24T03:20:39.568Z,17.79
2023-05-24T03:23:09.713Z,17.88
2023-05-24T03:25:37.278Z,17.95
2023-05-24T03:28:04.981Z,17.90
2023-05-24T03:30:33.256Z,17.91
2023-05-24T03:33:01.323Z,17.91
2023-05-24T03:35:29.155Z,17.96
2023-05-24T03:37:56.842Z,18.01
2023-05-24T03:40:25.918Z,18.03
2023-05-24T03:42:58.257Z,18.18
2023-05-24T03:45:42.934Z,18.26
2023-05-24T03:48:10.559Z,18.30
2023-05-24T03:50:38.110Z,18.36
2023-05-24T03:53:05.621Z,18.46
2023-05-24T03:55:33.104Z,18.55
2023-05-24T03:58:01.062Z,18.72
2023-05-24T04:00:29.030Z,18.90
2023-05-24T04:02:57.061Z,19.04
2023-05-24T04:05:29.990Z,19.16
2023-05-24T04:07:57.587Z,19.42
2023-05-24T04:10:25.145Z,19.52
2023-05-24T04:12:52.849Z,19.66
2023-05-24T04:15:21.389Z,19.79
2023-05-24T04:17:55.115Z,19.89
2023-05-24T04:20:25.725Z,19.97
2023-05-24T04:22:54.166Z,19.98
2023-05-24T04:25:22.193Z,20.05
2023-05-24T04:27:50.486Z,20.02
2023-05-24T04:30:18.015Z,20.11
2023-05-24T04:32:45.748Z,20.20
2023-05-24T04:35:14.216Z,20.28
2023-05-24T04:37:41.807Z,20.38
2023-05-24T04:40:10.631Z,20.44
2023-05-24T04:42:38.497Z,20.53
2023-05-24T04:45:07.192Z,20.63
2023-05-24T04:47:34.753Z,20.71
2023-05-24T04:50:02.387Z,20.77
2023-05-24T04:52:30.669Z,20.88
2023-05-24T04:54:58.331Z,20.99
2023-05-24T04:57:25.847Z,21.04
2023-05-24T04:59:53.380Z,21.14
2023-05-24T05:02:22.536Z,21.23
2023-05-24T05:04:50.138Z,21.33
2023-05-24T05:07:17.932Z,21.45
2023-05-24T05:09:45.451Z,21.41
2023-05-24T05:12:12.980Z,21.43
2023-05-24T05:14:40.590Z,21.49
2023-05-24T05:17:08.157Z,21.53
2023-05-24T05:19:35.914Z,21.56
2023-05-24T05:22:03.371Z,21.55
2023-05-24T05:24:31.677Z,21.63
2023-05-24T05:26:59.204Z,21.74
2023-05-24T05:29:26.733Z,21.88
2023-05-24T05:31:54.265Z,21.95
2023-05-24T05:34:21.934Z,22.10
2023-05-24T05:36:49.503Z,22.25
2023-05-24T05:39:17.089Z,22.35
2023-05-24T05:41:46.587Z,22.50
2023-05-24T05:44:17.150Z,22.64
2023-05-24T05:46:46.474Z,22.75
2023-05-24T05:49:15.527Z,22.83
2023-05-24T05:51:42.998Z,22.96
2023-05-24T05:54:14.608Z,23.02
2023-05-24T05:56:48.864Z,23.01
2023-05-24T05:59:16.510Z,23.04
2023-05-24T06:01:45.796Z,23.13
2023-05-24T06:04:14.375Z,23.16
2023-05-24T06:06:42.232Z,23.19
2023-05-24T06:09:11.422Z,23.27
2023-05-24T06:11:56.775Z,23.36
2023-05-24T06:14:27.657Z,23.48
2023-05-24T06:16:56.294Z,23.54
2023-05-24T06:19:25.364Z,23.62
2023-05-24T06:21:53.114Z,23.61
2023-05-24T06:24:21.904Z,23.64
2023-05-24T06:26:50.990Z,23.72
2023-05-24T06:29:22.962Z,23.83
2023-05-24T06:31:51.573Z,23.83
2023-05-24T06:34:21.598Z,23.76
2023-05-24T06:36:51.609Z,23.82
2023-05-24T06:39:19.615Z,23.92
2023-05-24T06:41:47.540Z,24.03
2023-05-24T06:44:16.581Z,24.10
2023-05-24T06:46:44.541Z,24.20
2023-05-24T06:49:12.733Z,24.34
2023-05-24T06:51:48.604Z,24.47
2023-05-24T06:54:16.892Z,24.52
2023-05-24T06:56:58.984Z,24.62
2023-05-24T06:59:27.802Z,24.81
2023-05-24T07:01:59.983Z,24.95
2023-05-24T07:04:29.456Z,25.01
2023-05-24T07:06:58.079Z,25.11
2023-05-24T07:09:25.700Z,25.14
2023-05-24T07:11:56.382Z,25.18
2023-05-24T07:14:31.888Z,25.22
2023-05-24T07:17:00.067Z,25.23
2023-05-24T07:19:36.201Z,25.40
2023-05-24T07:22:07.557Z,25.51
2023-05-24T07:24:36.616Z,25.53
2023-05-24T07:27:07.527Z,25.55
2023-05-24T07:29:35.150Z,25.51
2023-05-24T07:32:02.953Z,25.42
2023-05-24T07:34:31.862Z,25.45
2023-05-24T07:37:00.893Z,25.53
2023-05-24T07:39:31.259Z,25.46
2023-05-24T07:41:58.831Z,25.38
2023-05-24T07:44:26.449Z,25.40
2023-05-24T07:46:55.834Z,25.45
2023-05-24T07:49:24.119Z,25.52
2023-05-24T07:51:52.296Z,25.56
2023-05-24T07:54:20.245Z,25.59
2023-05-24T07:56:47.969Z,25.70
2023-05-24T07:59:19.346Z,25.81
2023-05-24T08:01:48.574Z,25.80
2023-05-24T08:04:16.434Z,25.85
2023-05-24T08:06:44.074Z,25.90
2023-05-24T08:09:12.461Z,25.90
2023-05-24T08:11:40.097Z,25.98
2023-05-24T08:14:07.704Z,25.92
2023-05-24T08:16:35.703Z,25.87
2023-05-24T08:19:03.376Z,25.94
2023-05-24T08:21:31.989Z,25.98
2023-05-24T08:24:00.650Z,26.07
2023-05-24T08:26:28.275Z,26.14
2023-05-24T08:28:55.743Z,26.19
2023-05-24T08:31:23.422Z,26.32
2023-05-24T08:33:51.493Z,26.40
2023-05-24T08:36:19.213Z,26.50
2023-05-24T08:38:46.648Z,26.58
2023-05-24T08:41:14.315Z,26.66
2023-05-24T08:43:42.489Z,26.68
2023-05-24T08:46:10.080Z,26.65
2023-05-24T08:48:44.771Z,26.73
2023-05-24T08:51:14.649Z,26.73
2023-05-24T08:53:42.581Z,26.67
2023-05-24T08:56:10.752Z,26.65
2023-05-24T08:58:41.735Z,26.82
2023-05-24T09:01:10.862Z,26.88
2023-05-24T09:03:38.817Z,26.82
2023-05-24T09:06:07.428Z,26.87
2023-05-24T09:08:35.627Z,26.90
2023-05-24T09:11:04.712Z,26.95
2023-05-24T09:13:35.241Z,26.97
2023-05-24T09:16:07.178Z,26.90
2023-05-24T09:18:34.724Z,26.83
2023-05-24T09:21:02.269Z,26.81
2023-05-24T09:23:29.886Z,26.85
2023-05-24T09:26:01.788Z,26.90
2023-05-24T09:42:30.433Z,27.08
2023-05-24T09:45:12.310Z,27.09
2023-05-24T09:47:42.167Z,27.03
2023-05-24T09:50:17.693Z,27.07
2023-05-24T09:52:45.952Z,26.81
2023-05-24T09:55:18.155Z,26.69
2023-05-24T09:57:50.630Z,26.65
2023-05-24T10:00:25.280Z,26.70
2023-05-24T10:03:07.564Z,26.65
2023-05-24T10:05:36.070Z,26.64
2023-05-24T10:08:05.328Z,26.69
2023-05-24T10:10:35.894Z,26.65
2023-05-24T10:13:03.694Z,26.67
2023-05-24T10:15:31.481Z,26.52
2023-05-24T10:18:00.855Z,26.47
2023-05-24T10:20:28.694Z,26.52
2023-05-24T10:23:00.794Z,26.61
2023-05-24T10:25:32.972Z,26.76
2023-05-24T10:28:07.493Z,26.84
2023-05-24T10:30:40.633Z,26.78
2023-05-24T10:33:08.646Z,26.74
2023-05-24T10:35:38.422Z,26.75
2023-05-24T10:38:09.013Z,26.73
2023-05-24T10:40:44.838Z,26.66
2023-05-24T10:43:13.812Z,26.59
2023-05-24T10:45:48.878Z,26.57
2023-05-24T10:48:17.250Z,26.61
2023-05-24T10:50:45.292Z,26.65
2023-05-24T10:53:34.633Z,26.64
2023-05-24T10:56:28.137Z,26.57
2023-05-24T10:59:01.064Z,26.51
2023-05-24T11:01:31.249Z,26.42
2023-05-24T11:04:17.123Z,26.30
2023-05-24T11:06:52.561Z,26.22
2023-05-24T11:09:20.514Z,26.17
2023-05-24T11:11:50.235Z,26.02
2023-05-24T11:14:28.518Z,25.93
2023-05-24T11:16:56.968Z,25.88
2023-05-24T11:19:48.658Z,25.91
2023-05-24T11:22:16.730Z,25.90
2023-05-24T11:24:47.531Z,25.82
2023-05-24T11:27:15.393Z,25.82
2023-05-24T11:29:48.082Z,25.77
2023-05-24T11:32:18.987Z,25.85
2023-05-24T11:34:52.498Z,25.91
2023-05-24T11:37:38.571Z,25.86
2023-05-24T11:40:16.503Z,25.89
2023-05-24T11:42:44.822Z,25.90
2023-05-24T11:45:14.154Z,25.97
2023-05-24T11:47:41.957Z,26.06
2023-05-24T11:50:10.396Z,25.88
2023-05-24T11:52:44.326Z,25.90
2023-05-24T11:55:16.354Z,25.96
2023-05-24T11:57:48.085Z,26.06
2023-05-24T12:00:38.613Z,26.14
2023-05-24T12:03:11.607Z,26.20
2023-05-24T12:05:43.191Z,26.27
2023-05-24T12:08:15.858Z,26.44
2023-05-24T12:10:44.067Z,26.40
2023-05-24T12:13:25.780Z,26.43
2023-05-24T12:15:57.134Z,26.50
2023-05-24T12:18:26.836Z,26.49
2023-05-24T12:21:11.668Z,26.65
2023-05-24T12:23:41.592Z,26.74
2023-05-24T12:26:09.739Z,26.70
2023-05-24T12:28:39.170Z,26.72
2023-05-24T12:31:07.365Z,26.74
2023-05-24T12:33:35.978Z,26.68
2023-05-24T12:36:03.605Z,26.68
2023-05-24T12:38:31.747Z,26.73
2023-05-24T12:41:12.407Z,26.76
2023-05-24T12:43:44.762Z,26.73
2023-05-24T12:46:14.397Z,26.74
2023-05-24T12:48:42.514Z,26.73
2023-05-24T12:51:12.864Z,26.81
2023-05-24T12:53:46.767Z,26.94
2023-05-24T12:56:14.322Z,27.04
2023-05-24T12:58:46.048Z,27.02
2023-05-24T13:01:14.911Z,26.98
2023-05-24T13:03:43.307Z,26.91
2023-05-24T13:06:11.668Z,26.84
2023-05-24T13:08:40.979Z,26.82
2023-05-24T13:11:16.702Z,26.70
2023-05-24T13:13:46.356Z,26.62
2023-05-24T13:16:17.031Z,26.58
2023-05-24T13:18:51.258Z,26.58
2023-05-24T13:21:22.227Z,26.53
2023-05-24T13:23:49.952Z,26.46
2023-05-24T13:26:20.504Z,26.36
2023-05-24T13:29:15.043Z,26.29
2023-05-24T13:31:38.512Z,26.24
2023-05-24T13:34:09.542Z,26.15
2023-05-24T13:36:38.429Z,26.04
2023-05-24T13:41:41.921Z,25.96
2023-05-24T13:44:10.429Z,25.88
2023-05-24T13:46:39.677Z,25.84
2023-05-24T13:49:07.743Z,25.82
2023-05-24T13:51:35.816Z,25.80
2023-05-24T13:54:05.041Z,25.66
2023-05-24T13:56:33.349Z,25.57
2023-05-24T13:59:02.642Z,25.54
2023-05-24T14:01:34.962Z,25.56
2023-05-24T14:04:06.383Z,25.56
2023-05-24T14:06:35.743Z,25.53
2023-05-24T14:09:08.552Z,25.49
2023-05-24T14:11:36.924Z,25.44
2023-05-24T14:16:37.351Z,25.37
2023-05-24T14:19:05.377Z,25.39
2023-05-24T14:21:33.136Z,25.47
2023-05-24T14:24:04.634Z,25.46
2023-05-24T14:26:38.882Z,25.41
2023-05-24T14:29:09.979Z,25.47
2023-05-24T14:31:42.571Z,25.47
2023-05-24T14:34:13.617Z,25.36
2023-05-24T14:36:43.297Z,25.34
2023-05-24T14:39:11.281Z,25.29
2023-05-24T14:41:39.239Z,25.25
2023-05-24T14:44:06.939Z,25.17
2023-05-24T14:46:34.706Z,25.12
2023-05-24T14:49:02.863Z,25.09
2023-05-24T14:51:30.683Z,25.03
2023-05-24T14:53:58.603Z,24.91
2023-05-24T14:56:26.306Z,24.90
2023-05-24T14:58:55.156Z,24.80
2023-05-24T15:01:23.449Z,24.69
2023-05-24T15:03:51.630Z,24.65
2023-05-24T15:06:19.897Z,24.59
2023-05-24T15:08:47.540Z,24.56
2023-05-24T15:11:19.832Z,24.50
2023-05-24T15:13:48.658Z,24.45
2023-05-24T15:16:16.286Z,24.47
2023-05-24T15:18:43.904Z,24.48
2023-05-24T15:21:11.876Z,24.43
2023-05-24T15:23:40.052Z,24.43
2023-05-24T15:26:08.413Z,24.41
2023-05-24T15:28:35.977Z,24.31
2023-05-24T15:31:03.926Z,24.15
2023-05-24T15:33:32.910Z,24.10
2023-05-24T15:36:00.811Z,24.04
2023-05-24T15:38:28.515Z,24.02
2023-05-24T15:40:56.260Z,24.04
2023-05-24T15:43:24.034Z,24.01
2023-05-24T15:45:51.666Z,24.01
2023-05-24T15:48:19.473Z,24.02
2023-05-24T15:51:32.003Z,24.05
2023-05-24T15:53:34.852Z,24.10
2023-05-24T15:56:02.424Z,24.19
2023-05-24T15:58:30.022Z,24.25
2023-05-24T16:00:57.736Z,24.30
2023-05-24T16:03:25.434Z,24.36
2023-05-24T16:05:53.138Z,24.43
2023-05-24T16:08:27.879Z,24.49
2023-05-24T16:10:56.060Z,24.45
2023-05-24T16:13:23.813Z,24.37
2023-05-24T16:15:54.353Z,24.34
2023-05-24T16:18:23.495Z,24.23
2023-05-24T16:20:52.030Z,24.14
2023-05-24T16:23:23.246Z,24.15
2023-05-24T16:25:54.424Z,24.04
2023-05-24T16:28:24.385Z,23.96
2023-05-24T16:30:58.845Z,23.91
2023-05-24T16:33:26.302Z,23.84
2023-05-24T16:36:02.925Z,23.78
2023-05-24T16:38:31.351Z,23.72
2023-05-24T16:40:59.326Z,23.69
2023-05-24T16:43:26.906Z,23.64
2023-05-24T16:45:55.632Z,23.56
2023-05-24T16:48:28.715Z,23.48
2023-05-24T16:50:56.963Z,23.41
2023-05-24T16:53:26.302Z,23.35
2023-05-24T16:55:55.930Z,23.31
2023-05-24T16:58:24.787Z,23.24
2023-05-24T17:00:54.647Z,23.13
2023-05-24T17:03:28.686Z,23.02
2023-05-24T17:06:00.106Z,22.92
2023-05-24T17:08:30.267Z,22.86
2023-05-24T17:10:59.213Z,22.81
2023-05-24T17:13:29.690Z,22.75
2023-05-24T17:15:57.991Z,22.66
2023-05-24T17:18:29.663Z,22.58
2023-05-24T17:21:01.600Z,22.52
2023-05-24T17:23:31.180Z,22.42
2023-05-24T17:25:59.112Z,22.35
2023-05-24T17:28:29.755Z,22.31
2023-05-24T17:30:58.496Z,22.22
2023-05-24T17:33:28.055Z,22.15
2023-05-24T17:35:56.882Z,22.11
2023-05-24T17:38:25.261Z,22.09
2023-05-24T17:40:59.713Z,22.07
2023-05-24T17:43:35.462Z,22.01
2023-05-24T17:46:07.045Z,21.95
2023-05-24T17:48:43.056Z,21.89
2023-05-24T17:51:10.837Z,21.84
2023-05-24T17:53:38.579Z,21.82
2023-05-24T17:56:06.501Z,21.72
2023-05-24T17:58:37.510Z,21.66
2023-05-24T18:03:46.648Z,21.54
2023-05-24T18:06:14.321Z,21.45
2023-05-24T18:08:44.823Z,21.42
2023-05-24T18:11:13.889Z,21.35
2023-05-24T18:13:42.798Z,21.30
2023-05-24T18:16:11.168Z,21.24
2023-05-24T18:18:39.041Z,21.17
2023-05-24T18:21:06.748Z,21.05
2023-05-24T18:23:37.894Z,21.00
2023-05-24T18:26:09.597Z,20.96
2023-05-24T18:28:37.846Z,20.90
2023-05-24T18:31:08.781Z,20.89
2023-05-24T18:33:37.962Z,20.85
2023-05-24T18:36:06.396Z,20.78
2023-05-24T18:38:33.911Z,20.73
2023-05-24T18:41:04.146Z,20.66
2023-05-24T18:43:33.606Z,20.63
2023-05-24T18:46:01.670Z,20.59
2023-05-24T18:48:29.291Z,20.58
2023-05-24T18:50:56.800Z,20.57
2023-05-24T18:53:25.801Z,20.55
2023-05-24T18:55:53.343Z,20.51
2023-05-24T18:58:20.810Z,20.48
2023-05-24T19:00:48.370Z,20.42
2023-05-24T19:03:16.124Z,20.37
2023-05-24T19:05:44.302Z,20.35
2023-05-24T19:08:12.206Z,20.36
2023-05-24T19:10:39.833Z,20.33
2023-05-24T19:13:07.415Z,20.35
2023-05-24T19:15:35.458Z,20.35
2023-05-24T19:18:03.560Z,20.34
2023-05-24T19:20:31.318Z,20.26
2023-05-24T19:22:59.237Z,20.26
2023-05-24T19:25:26.943Z,20.22
2023-05-24T19:28:00.009Z,20.20
2023-05-24T19:30:28.313Z,20.21
2023-05-24T19:32:56.014Z,20.18
2023-05-24T19:35:23.581Z,20.19
2023-05-24T19:37:52.464Z,20.19
2023-05-24T19:40:20.599Z,20.14
2023-05-24T19:42:48.132Z,20.17
2023-05-24T19:45:16.580Z,20.19
2023-05-24T19:47:45.589Z,20.20
2023-05-24T19:50:13.064Z,20.18
2023-05-24T19:52:40.771Z,20.13
2023-05-24T19:55:08.764Z,20.13
2023-05-24T19:57:36.291Z,20.15
2023-05-24T20:00:04.859Z,20.19
2023-05-24T20:02:38.835Z,20.11
2023-05-24T20:05:07.177Z,20.10
2023-05-24T20:07:34.745Z,20.09
2023-05-24T20:10:05.334Z,20.08
2023-05-24T20:12:34.759Z,20.03
2023-05-24T20:15:02.373Z,20.01
2023-05-24T20:17:29.919Z,20.00
2023-05-24T20:19:57.512Z,19.99
2023-05-24T20:22:25.232Z,19.97
2023-05-24T20:24:52.750Z,19.95
2023-05-24T20:27:20.245Z,19.90
2023-05-24T20:29:47.969Z,19.89
2023-05-24T20:32:16.532Z,19.85
2023-05-24T20:34:44.217Z,19.81
2023-05-24T20:37:11.703Z,19.76
2023-05-24T20:39:39.258Z,19.71
2023-05-24T20:42:08.444Z,19.63
2023-05-24T20:44:35.916Z,19.63
2023-05-24T20:47:03.462Z,19.62
2023-05-24T20:49:31.008Z,19.61
2023-05-24T20:51:58.596Z,19.54
2023-05-24T20:54:26.167Z,19.50
2023-05-24T20:56:53.848Z,19.49
2023-05-24T20:59:21.350Z,19.51
2023-05-24T21:01:48.806Z,19.48
2023-05-24T21:04:16.475Z,19.47
2023-05-24T21:06:44.069Z,19.43
2023-05-24T21:09:11.649Z,19.42
2023-05-24T21:11:39.526Z,19.42
2023-05-24T21:14:06.993Z,19.42
2023-05-24T21:16:34.712Z,19.39
2023-05-24T21:19:02.300Z,19.40
2023-05-24T21:21:29.809Z,19.32
2023-05-24T21:23:58.114Z,19.29
2023-05-24T21:26:26.723Z,19.23
2023-05-24T21:28:54.241Z,19.23
2023-05-24T21:31:21.768Z,19.23
2023-05-24T21:33:49.271Z,19.21
2023-05-24T21:36:18.708Z,19.22
2023-05-24T21:38:46.240Z,19.26
2023-05-24T21:41:13.784Z,19.27
2023-05-24T21:43:41.948Z,19.24
2023-05-24T21:46:09.456Z,19.20
2023-05-24T21:48:36.900Z,19.21
2023-05-24T21:51:04.347Z,19.21
2023-05-24T21:53:31.767Z,19.22
2023-05-24T21:55:59.215Z,19.23
2023-05-24T21:58:26.707Z,19.22
2023-05-24T22:00:54.286Z,19.16
2023-05-24T22:03:21.900Z,19.13
2023-05-24T22:05:49.396Z,19.10
2023-05-24T22:08:16.929Z,19.16
2023-05-24T22:10:44.378Z,19.18
2023-05-24T22:13:12.309Z,19.15
2023-05-24T22:15:39.814Z,19.10
2023-05-24T22:18:07.405Z,19.02
2023-05-24T22:20:36.860Z,18.99
2023-05-24T22:23:04.512Z,18.97
2023-05-24T22:25:32.093Z,18.92
2023-05-24T22:27:59.569Z,18.93
2023-05-24T22:30:27.162Z,18.94
2023-05-24T22:32:56.076Z,18.94
2023-05-24T22:35:23.549Z,18.90
2023-05-24T22:37:51.141Z,18.85
2023-05-24T22:40:18.615Z,18.76
2023-05-24T22:42:46.174Z,18.69
2023-05-24T22:45:14.110Z,18.72
2023-05-24T22:47:41.714Z,18.71
2023-05-24T22:50:09.619Z,18.70
2023-05-24T22:52:42.701Z,18.67
2023-05-24T22:55:11.292Z,18.64
2023-05-24T22:57:38.812Z,18.55
2023-05-24T23:00:08.241Z,18.43
2023-05-24T23:02:36.551Z,18.34
2023-05-24T23:05:04.831Z,18.26
2023-05-24T23:07:32.738Z,18.14
2023-05-24T23:10:00.272Z,18.09
2023-05-24T23:12:27.757Z,18.09
2023-05-24T23:14:58.500Z,18.08
2023-05-24T23:17:26.531Z,18.06
2023-05-24T23:19:54.156Z,18.02
2023-05-24T23:22:23.937Z,17.98
2023-05-24T23:24:51.941Z,17.94
2023-05-24T23:27:19.511Z,17.93
2023-05-24T23:29:47.030Z,17.91
2023-05-24T23:32:14.681Z,17.88
2023-05-24T23:34:42.173Z,17.91
2023-05-24T23:37:09.700Z,17.89
2023-05-24T23:39:38.201Z,17.86
2023-05-24T23:42:06.855Z,17.84
2023-05-24T23:44:34.384Z,17.83
2023-05-24T23:47:02.180Z,17.83
2023-05-24T23:49:29.901Z,17.81
2023-05-24T23:51:57.486Z,17.79
2023-05-24T23:54:25.066Z,17.75
2023-05-24T23:56:52.504Z,17.78
2023-05-24T23:59:19.986Z,17.85
